createdAt,value
2022-12-26T00:01:09.764Z,18.27
2022-12-26T00:03:38.041Z,16.52
2022-12-26T00:06:13.551Z,17.27
2022-12-26T00:08:42.054Z,15.65
2022-12-26T00:11:10.519Z,16.65
2022-12-26T00:13:41.532Z,16.52
2022-12-26T00:16:11.868Z,17.77
2022-12-26T00:18:40.483Z,19.20
2022-12-26T00:21:11.998Z,18.45
2022-12-26T00:23:40.743Z,17.20
2022-12-26T00:26:11.308Z,18.27
2022-12-26T00:28:39.479Z,18.90
2022-12-26T00:31:09.021Z,17.40
2022-12-26T00:33:37.700Z,18.30
2022-12-26T00:36:08.593Z,18.50
2022-12-26T00:38:39.128Z,18.98
2022-12-26T00:41:08.154Z,20.77
2022-12-26T00:43:36.253Z,19.67
2022-12-26T00:46:04.857Z,19.08
2022-12-26T00:48:33.259Z,19.57
2022-12-26T00:51:01.958Z,19.67
2022-12-26T00:53:30.219Z,21.80
2022-12-26T00:55:59.684Z,20.13
2022-12-26T00:58:27.905Z,20.13
2022-12-26T01:00:56.624Z,22.20
2022-12-26T01:03:24.700Z,21.65
2022-12-26T01:05:53.291Z,21.35
2022-12-26T01:08:24.885Z,19.70
2022-12-26T01:10:53.673Z,21.13
2022-12-26T01:13:23.246Z,21.98
2022-12-26T01:15:52.269Z,22.20
2022-12-26T01:18:20.832Z,21.40
2022-12-26T01:20:49.516Z,23.20
2022-12-26T01:23:18.083Z,23.25
2022-12-26T01:26:15.491Z,24.10
2022-12-26T01:28:35.509Z,22.77
2022-12-26T01:31:04.783Z,22.13
2022-12-26T01:33:33.033Z,22.30
2022-12-26T01:36:01.166Z,22.38
2022-12-26T01:38:29.298Z,22.05
2022-12-26T01:41:11.309Z,21.63
2022-12-26T01:43:56.455Z,21.38
2022-12-26T01:46:29.937Z,22.08
2022-12-26T01:49:00.717Z,21.35
2022-12-26T01:51:32.588Z,22.15
2022-12-26T01:54:40.248Z,22.38
2022-12-26T01:56:51.294Z,23.13
2022-12-26T01:59:22.567Z,22.90
2022-12-26T02:01:53.740Z,23.02
2022-12-26T02:04:44.930Z,23.17
2022-12-26T02:07:13.318Z,23.83
2022-12-26T02:09:41.713Z,21.83
2022-12-26T02:12:34.442Z,21.67
2022-12-26T02:15:07.635Z,22.08
2022-12-26T02:17:35.667Z,21.95
2022-12-26T02:20:17.542Z,20.73
2022-12-26T02:23:17.195Z,20.00
2022-12-26T02:26:23.423Z,20.45
2022-12-26T02:29:19.635Z,19.25
2022-12-26T02:31:56.253Z,19.00
2022-12-26T02:34:29.006Z,19.13
2022-12-26T02:37:19.830Z,19.73
2022-12-26T02:40:02.398Z,20.00
2022-12-26T02:42:41.191Z,19.17
2022-12-26T02:45:36.035Z,17.83
2022-12-26T02:48:13.689Z,16.90
2022-12-26T02:51:11.526Z,17.30
2022-12-26T02:54:04.023Z,17.30
2022-12-26T02:56:53.383Z,16.05
2022-12-26T02:59:55.864Z,16.45
2022-12-26T03:02:48.709Z,15.00
2022-12-26T03:05:41.965Z,14.43
2022-12-26T03:08:34.121Z,16.00
2022-12-26T03:11:19.720Z,13.93
2022-12-26T03:13:50.393Z,14.77
2022-12-26T03:16:37.628Z,15.82
2022-12-26T03:19:09.303Z,15.98
2022-12-26T03:21:42.134Z,17.48
2022-12-26T03:24:12.532Z,18.45
2022-12-26T03:26:47.636Z,17.92
2022-12-26T03:29:35.382Z,17.27
2022-12-26T03:32:05.551Z,16.20
2022-12-26T03:34:35.114Z,18.50
2022-12-26T03:37:47.592Z,18.02
2022-12-26T03:41:04.208Z,17.40
2022-12-26T03:44:07.131Z,17.83
2022-12-26T03:47:02.606Z,17.97
2022-12-26T03:49:53.397Z,17.27
2022-12-26T03:52:47.594Z,16.75
2022-12-26T03:55:37.915Z,17.70
2022-12-26T03:58:29.746Z,15.70
2022-12-26T04:01:18.429Z,16.73
2022-12-26T04:04:05.452Z,16.15
2022-12-26T04:06:56.688Z,14.45
2022-12-26T04:09:49.762Z,13.90
2022-12-26T04:12:38.828Z,15.07
2022-12-26T04:15:31.009Z,12.85
2022-12-26T04:18:20.692Z,12.63
2022-12-26T04:20:58.972Z,13.90
2022-12-26T04:23:53.179Z,13.30
2022-12-26T04:26:45.219Z,11.95
2022-12-26T04:29:31.066Z,11.68
2022-12-26T04:32:22.227Z,12.90
2022-12-26T04:35:14.855Z,11.70
2022-12-26T04:38:03.997Z,10.85
2022-12-26T04:40:53.767Z,10.00
2022-12-26T04:43:49.519Z,10.03
2022-12-26T04:46:20.576Z,10.43
2022-12-26T04:49:08.322Z,9.88
2022-12-26T04:51:36.771Z,9.00
2022-12-26T04:54:05.779Z,8.70
2022-12-26T04:56:33.736Z,9.40
2022-12-26T04:59:03.370Z,7.75
2022-12-26T05:01:48.900Z,7.82
2022-12-26T05:04:35.844Z,7.50
2022-12-26T05:07:23.782Z,7.93
2022-12-26T05:09:54.435Z,7.78
2022-12-26T05:12:22.487Z,7.50
2022-12-26T05:14:51.783Z,6.90
2022-12-26T05:17:37.607Z,6.65
2022-12-26T05:20:23.999Z,5.57
2022-12-26T05:23:10.977Z,5.78
2022-12-26T05:26:00.046Z,6.15
2022-12-26T05:28:43.303Z,5.40
2022-12-26T05:31:14.649Z,5.20
2022-12-26T05:34:00.719Z,5.32
2022-12-26T05:36:32.616Z,5.25
2022-12-26T05:39:01.857Z,6.05
2022-12-26T05:41:29.895Z,4.90
2022-12-26T05:43:57.920Z,4.38
2022-12-26T05:46:27.347Z,5.60
2022-12-26T05:48:55.432Z,5.05
2022-12-26T05:51:23.571Z,5.60
2022-12-26T05:53:52.519Z,4.90
2022-12-26T05:56:21.582Z,5.15
2022-12-26T05:58:54.351Z,5.00
2022-12-26T06:01:22.715Z,4.57
2022-12-26T06:03:53.533Z,5.30
2022-12-26T06:06:22.434Z,5.50
2022-12-26T06:08:50.941Z,5.60
2022-12-26T06:11:20.010Z,5.22
2022-12-26T06:13:48.193Z,5.80
2022-12-26T06:16:17.940Z,5.90
2022-12-26T06:18:46.317Z,6.40
2022-12-26T06:21:17.326Z,6.07
2022-12-26T06:23:45.704Z,6.95
2022-12-26T06:26:13.710Z,5.88
2022-12-26T06:28:44.694Z,7.57
2022-12-26T06:31:16.137Z,7.13
2022-12-26T06:33:44.200Z,6.72
2022-12-26T06:36:15.651Z,6.60
2022-12-26T06:38:44.263Z,5.90
2022-12-26T06:41:14.635Z,6.75
2022-12-26T06:43:43.243Z,5.87
2022-12-26T06:46:14.081Z,5.80
2022-12-26T06:48:42.493Z,5.80
2022-12-26T06:51:12.709Z,7.00
2022-12-26T06:53:42.305Z,5.90
2022-12-26T06:56:12.533Z,5.10
2022-12-26T06:58:40.651Z,5.95
2022-12-26T07:01:10.334Z,5.80
2022-12-26T07:03:40.946Z,6.20
2022-12-26T07:06:17.861Z,5.50
2022-12-26T07:08:47.299Z,5.10
2022-12-26T07:11:15.959Z,4.75
2022-12-26T07:13:44.127Z,4.63
2022-12-26T07:16:12.389Z,5.10
2022-12-26T07:18:40.453Z,4.65
2022-12-26T07:21:09.710Z,3.55
2022-12-26T07:23:37.713Z,4.03
2022-12-26T07:26:08.741Z,3.78
2022-12-26T07:28:36.850Z,4.25
2022-12-26T07:31:05.673Z,4.43
2022-12-26T07:33:34.443Z,4.10
2022-12-26T07:36:03.231Z,3.58
2022-12-26T07:38:31.401Z,3.90
2022-12-26T07:40:59.940Z,3.90
2022-12-26T07:43:29.233Z,4.80
2022-12-26T07:45:59.485Z,3.80
2022-12-26T07:48:27.448Z,3.03
2022-12-26T07:50:55.373Z,3.03
2022-12-26T07:53:23.268Z,4.10
2022-12-26T07:55:51.182Z,3.88
2022-12-26T07:58:19.139Z,3.58
2022-12-26T08:00:48.456Z,3.33
2022-12-26T08:03:16.679Z,3.45
2022-12-26T08:05:46.294Z,4.13
2022-12-26T08:08:14.311Z,4.10
2022-12-26T08:10:42.340Z,3.22
2022-12-26T08:13:11.724Z,3.83
2022-12-26T08:15:40.505Z,4.47
2022-12-26T08:18:10.675Z,4.43
2022-12-26T08:20:38.659Z,3.10
2022-12-26T08:23:06.750Z,3.80
2022-12-26T08:25:34.752Z,3.88
2022-12-26T08:28:02.700Z,4.68
2022-12-26T08:30:30.677Z,3.88
2022-12-26T08:32:58.654Z,4.43
2022-12-26T08:35:30.148Z,3.97
2022-12-26T08:37:58.294Z,4.43
2022-12-26T08:40:41.983Z,3.50
2022-12-26T08:43:30.287Z,3.25
2022-12-26T08:46:00.528Z,3.37
2022-12-26T08:48:29.014Z,3.40
2022-12-26T08:51:00.429Z,3.30
2022-12-26T08:53:29.954Z,2.70
2022-12-26T08:55:58.150Z,2.40
2022-12-26T08:58:26.693Z,2.63
2022-12-26T09:00:55.620Z,2.90
2022-12-26T09:03:23.734Z,2.40
2022-12-26T09:05:51.775Z,2.10
2022-12-26T09:08:21.097Z,1.90
2022-12-26T09:10:49.038Z,2.30
2022-12-26T09:13:17.038Z,2.30
2022-12-26T09:15:44.995Z,3.37
2022-12-26T09:18:13.147Z,2.20
2022-12-26T09:20:41.115Z,2.77
2022-12-26T09:23:10.857Z,3.03
2022-12-26T09:25:40.146Z,2.90
2022-12-26T09:28:08.194Z,4.07
2022-12-26T09:30:37.737Z,3.17
2022-12-26T09:33:07.817Z,3.22
2022-12-26T09:35:35.773Z,3.53
2022-12-26T09:38:03.720Z,3.65
2022-12-26T09:40:41.609Z,4.20
2022-12-26T09:43:34.234Z,3.53
2022-12-26T09:46:12.222Z,2.78
2022-12-26T09:48:47.920Z,3.10
2022-12-26T09:51:15.897Z,3.05
2022-12-26T09:53:46.597Z,3.17
2022-12-26T09:56:37.054Z,3.07
2022-12-26T09:59:13.336Z,3.60
2022-12-26T10:01:41.825Z,3.78
2022-12-26T10:04:23.511Z,3.65
2022-12-26T10:07:05.847Z,3.43
2022-12-26T10:09:49.209Z,3.60
2022-12-26T10:12:38.633Z,3.60
2022-12-26T10:15:25.619Z,4.40
2022-12-26T10:18:00.452Z,3.13
2022-12-26T10:20:36.107Z,3.28
2022-12-26T10:23:22.819Z,2.97
2022-12-26T10:25:54.224Z,3.40
2022-12-26T10:28:30.717Z,2.97
2022-12-26T10:31:04.640Z,2.55
2022-12-26T10:33:42.703Z,2.50
2022-12-26T10:36:18.759Z,2.55
2022-12-26T10:38:49.279Z,2.97
2022-12-26T10:41:24.361Z,2.80
2022-12-26T10:43:52.746Z,2.40
2022-12-26T10:46:48.215Z,2.60
2022-12-26T10:49:19.775Z,3.28
2022-12-26T10:51:47.857Z,2.95
2022-12-26T10:54:18.483Z,2.53
2022-12-26T10:56:48.805Z,2.38
2022-12-26T10:59:20.928Z,2.63
2022-12-26T11:01:50.844Z,3.05
2022-12-26T11:04:44.496Z,3.20
2022-12-26T11:07:12.915Z,3.13
2022-12-26T11:09:43.963Z,2.80
2022-12-26T11:12:21.792Z,2.70
2022-12-26T11:14:50.176Z,3.58
2022-12-26T11:17:30.463Z,3.47
2022-12-26T11:20:23.873Z,3.30
2022-12-26T11:22:52.407Z,3.70
2022-12-26T11:25:23.437Z,3.43
2022-12-26T11:27:53.992Z,3.20
2022-12-26T11:30:31.304Z,3.00
2022-12-26T11:33:14.940Z,2.33
2022-12-26T11:35:55.524Z,2.90
2022-12-26T11:38:42.749Z,2.67
2022-12-26T11:41:36.501Z,2.53
2022-12-26T11:44:18.571Z,2.00
2022-12-26T11:46:50.559Z,2.35
2022-12-26T11:49:28.635Z,2.50
2022-12-26T11:51:59.653Z,2.10
2022-12-26T11:54:36.790Z,1.90
2022-12-26T11:57:19.119Z,2.20
2022-12-26T11:59:48.223Z,2.08
2022-12-26T12:02:25.073Z,2.30
2022-12-26T12:04:57.253Z,2.10
2022-12-26T12:07:51.446Z,2.22
2022-12-26T12:10:56.200Z,2.65
2022-12-26T12:13:47.746Z,2.50
2022-12-26T12:16:32.048Z,2.55
2022-12-26T12:19:08.975Z,2.80
2022-12-26T12:21:44.653Z,2.50
2022-12-26T12:24:34.113Z,1.80
2022-12-26T12:27:09.705Z,1.90
2022-12-26T12:29:50.534Z,1.80
2022-12-26T12:32:23.789Z,2.17
2022-12-26T12:35:22.517Z,2.20
2022-12-26T12:38:08.904Z,2.25
2022-12-26T12:40:44.241Z,1.60
2022-12-26T12:43:18.290Z,1.90
2022-12-26T12:45:57.432Z,3.83
2022-12-26T12:48:37.316Z,2.65
2022-12-26T12:51:15.504Z,2.10
2022-12-26T12:54:16.209Z,2.30
2022-12-26T12:56:51.259Z,2.40
2022-12-26T12:59:30.061Z,2.60
2022-12-26T13:02:09.000Z,1.80
2022-12-26T13:04:42.956Z,1.90
2022-12-26T13:07:16.140Z,1.77
2022-12-26T13:09:48.510Z,2.67
2022-12-26T13:12:22.268Z,3.30
2022-12-26T13:14:54.255Z,2.50
2022-12-26T13:17:26.869Z,1.50
2022-12-26T13:20:02.445Z,1.95
2022-12-26T13:22:57.010Z,1.95
2022-12-26T13:25:32.041Z,2.95
2022-12-26T13:28:09.600Z,1.98
2022-12-26T13:30:38.959Z,1.85
2022-12-26T13:33:07.401Z,2.00
2022-12-26T13:35:57.593Z,2.00
2022-12-26T13:38:27.217Z,2.93
2022-12-26T13:41:20.727Z,1.88
2022-12-26T13:44:01.720Z,2.20
2022-12-26T13:46:55.806Z,2.33
2022-12-26T13:49:36.233Z,3.10
2022-12-26T13:52:25.836Z,2.40
2022-12-26T13:55:30.771Z,2.88
2022-12-26T13:58:43.664Z,3.03
2022-12-26T14:01:27.117Z,3.50
2022-12-26T14:04:12.529Z,2.33
2022-12-26T14:06:50.633Z,2.10
2022-12-26T14:09:35.198Z,1.80
2022-12-26T14:12:22.248Z,2.40
2022-12-26T14:15:06.449Z,2.40
2022-12-26T14:17:44.982Z,1.83
2022-12-26T14:20:24.463Z,2.20
2022-12-26T14:23:02.804Z,2.63
2022-12-26T14:25:39.630Z,1.83
2022-12-26T14:28:25.200Z,2.07
2022-12-26T14:31:06.672Z,2.10
2022-12-26T14:33:40.214Z,2.60
2022-12-26T14:36:25.113Z,2.40
2022-12-26T14:39:01.017Z,1.80
2022-12-26T14:41:46.898Z,2.60
2022-12-26T14:44:43.090Z,1.88
2022-12-26T14:47:13.035Z,2.40
2022-12-26T14:49:43.226Z,2.30
2022-12-26T14:52:40.728Z,2.38
2022-12-26T14:55:48.758Z,2.08
2022-12-26T14:58:38.127Z,2.67
2022-12-26T15:01:58.345Z,3.20
2022-12-26T15:05:02.022Z,2.40
2022-12-26T15:08:03.093Z,2.30
2022-12-26T15:11:04.618Z,3.50
2022-12-26T15:14:25.410Z,2.78
2022-12-26T15:17:05.567Z,3.00
2022-12-26T15:19:55.064Z,4.60
2022-12-26T15:22:56.510Z,4.15
2022-12-26T15:25:58.432Z,3.20
2022-12-26T15:28:58.588Z,3.80
2022-12-26T15:31:42.765Z,3.00
2022-12-26T15:34:33.755Z,3.08
2022-12-26T15:37:07.760Z,3.80
2022-12-26T15:39:41.930Z,2.90
2022-12-26T15:42:25.006Z,2.80
2022-12-26T15:45:05.283Z,3.33
2022-12-26T15:47:39.941Z,3.22
2022-12-26T15:50:23.228Z,2.47
2022-12-26T15:53:00.488Z,3.15
2022-12-26T15:55:41.902Z,3.28
2022-12-26T15:58:25.735Z,3.00
2022-12-26T16:00:55.370Z,2.60
2022-12-26T16:03:33.921Z,2.80
2022-12-26T16:06:16.501Z,2.78
2022-12-26T16:08:59.325Z,3.55
2022-12-26T16:11:31.584Z,2.92
2022-12-26T16:14:03.153Z,2.60
2022-12-26T16:16:34.747Z,2.55
2022-12-26T16:19:19.350Z,3.00
2022-12-26T16:22:08.711Z,3.40
2022-12-26T16:24:39.086Z,2.80
2022-12-26T16:27:09.454Z,2.90
2022-12-26T16:29:47.181Z,3.17
2022-12-26T16:32:19.389Z,3.55
2022-12-26T16:34:48.301Z,3.03
2022-12-26T16:37:20.333Z,2.97
2022-12-26T16:40:26.305Z,2.40
2022-12-26T16:43:00.581Z,3.70
2022-12-26T16:45:33.256Z,3.60
2022-12-26T16:48:02.021Z,2.70
2022-12-26T16:50:32.821Z,3.28
2022-12-26T16:53:05.933Z,3.30
2022-12-26T16:55:42.009Z,3.50
2022-12-26T16:58:20.720Z,4.30
2022-12-26T17:00:56.081Z,2.78
2022-12-26T17:03:30.628Z,2.87
2022-12-26T17:05:58.658Z,3.10
2022-12-26T17:08:27.218Z,3.80
2022-12-26T17:10:55.246Z,2.67
2022-12-26T17:13:26.633Z,3.17
2022-12-26T17:15:59.626Z,3.40
2022-12-26T17:18:38.923Z,3.30
2022-12-26T17:21:18.221Z,4.10
2022-12-26T17:23:46.743Z,3.22
2022-12-26T17:26:32.690Z,3.33
2022-12-26T17:29:01.014Z,2.83
2022-12-26T17:31:37.032Z,4.00
2022-12-26T17:34:14.374Z,3.35
2022-12-26T17:37:17.675Z,2.75
2022-12-26T17:39:30.988Z,3.50
2022-12-26T17:42:01.960Z,3.90
2022-12-26T17:44:41.100Z,3.67
2022-12-26T17:47:18.918Z,3.00
2022-12-26T17:49:47.203Z,3.00
2022-12-26T17:52:17.821Z,3.33
2022-12-26T17:54:46.421Z,3.20
2022-12-26T17:57:20.650Z,3.33
2022-12-26T17:59:50.627Z,2.55
2022-12-26T18:02:20.660Z,2.90
2022-12-26T18:04:51.135Z,2.80
2022-12-26T18:07:27.235Z,3.10
2022-12-26T18:09:59.076Z,2.60
2022-12-26T18:12:27.143Z,2.88
2022-12-26T18:15:01.360Z,3.10
2022-12-26T18:17:33.542Z,3.20
2022-12-26T18:20:01.629Z,2.60
2022-12-26T18:22:29.801Z,2.60
2022-12-26T18:24:57.835Z,2.80
2022-12-26T18:27:29.408Z,2.97
2022-12-26T18:29:57.505Z,2.70
2022-12-26T18:32:27.278Z,2.57
2022-12-26T18:34:57.011Z,2.40
2022-12-26T18:37:26.718Z,3.20
2022-12-26T18:39:55.115Z,2.60
2022-12-26T18:42:23.306Z,2.40
2022-12-26T18:44:51.338Z,3.00
2022-12-26T18:47:21.619Z,2.92
2022-12-26T18:49:50.284Z,2.33
2022-12-26T18:52:19.684Z,2.80
2022-12-26T18:54:47.727Z,3.30
2022-12-26T18:57:20.028Z,2.53
2022-12-26T18:59:48.551Z,2.80
2022-12-26T19:02:18.186Z,2.70
2022-12-26T19:04:48.300Z,2.88
2022-12-26T19:07:17.273Z,2.38
2022-12-26T19:09:48.614Z,2.50
2022-12-26T19:12:17.011Z,3.40
2022-12-26T19:14:45.824Z,2.53
2022-12-26T19:17:14.501Z,2.60
2022-12-26T19:19:42.670Z,2.70
2022-12-26T19:22:11.256Z,3.50
2022-12-26T19:24:39.193Z,2.50
2022-12-26T19:27:08.533Z,3.30
2022-12-26T19:29:36.508Z,3.45
2022-12-26T19:32:04.564Z,3.80
2022-12-26T19:34:32.677Z,3.10
2022-12-26T19:37:00.658Z,3.50
2022-12-26T19:39:29.653Z,3.40
2022-12-26T19:41:57.577Z,3.97
2022-12-26T19:44:28.930Z,4.70
2022-12-26T19:47:11.113Z,3.20
2022-12-26T19:49:40.933Z,4.35
2022-12-26T19:52:09.114Z,4.30
2022-12-26T19:54:37.198Z,4.50
2022-12-26T19:57:06.730Z,3.75
2022-12-26T19:59:36.500Z,3.70
2022-12-26T20:02:04.716Z,3.17
2022-12-26T20:04:32.941Z,3.42
2022-12-26T20:07:01.325Z,2.92
2022-12-26T20:09:29.573Z,2.65
2022-12-26T20:11:57.921Z,1.80
2022-12-26T20:14:27.763Z,3.00
2022-12-26T20:17:07.493Z,2.57
2022-12-26T20:19:36.818Z,2.65
2022-12-26T20:22:05.725Z,2.78
2022-12-26T20:24:34.073Z,3.33
2022-12-26T20:27:02.418Z,2.40
2022-12-26T20:29:30.411Z,2.10
2022-12-26T20:32:00.234Z,1.80
2022-12-26T20:34:28.292Z,3.00
2022-12-26T20:36:56.289Z,3.00
2022-12-26T20:39:25.582Z,2.60
2022-12-26T20:41:53.788Z,2.45
2022-12-26T20:44:22.075Z,2.75
2022-12-26T20:46:51.468Z,3.10
2022-12-26T20:49:20.763Z,2.50
2022-12-26T20:51:48.798Z,2.80
2022-12-26T20:54:18.385Z,3.40
2022-12-26T20:56:46.823Z,3.10
2022-12-26T20:59:15.058Z,3.50
2022-12-26T21:01:43.640Z,3.42
2022-12-26T21:04:18.415Z,3.25
2022-12-26T21:06:50.293Z,3.00
2022-12-26T21:09:18.297Z,4.10
2022-12-26T21:11:46.378Z,2.80
2022-12-26T21:14:17.739Z,3.03
2022-12-26T21:16:47.510Z,2.63
2022-12-26T21:19:16.941Z,4.00
2022-12-26T21:21:48.777Z,3.27
2022-12-26T21:24:20.770Z,2.90
2022-12-26T21:26:49.249Z,3.70
2022-12-26T21:29:19.416Z,3.53
2022-12-26T21:31:48.264Z,4.25
2022-12-26T21:34:18.041Z,2.90
2022-12-26T21:37:06.325Z,3.78
2022-12-26T21:39:37.166Z,4.03
2022-12-26T21:42:07.748Z,3.90
2022-12-26T21:44:36.735Z,4.30
2022-12-26T21:47:05.170Z,3.67
2022-12-26T21:49:33.145Z,3.72
2022-12-26T21:52:01.165Z,4.00
2022-12-26T21:54:49.021Z,4.10
2022-12-26T21:57:19.584Z,4.00
2022-12-26T21:59:57.197Z,3.60
2022-12-26T22:02:40.120Z,3.35
2022-12-26T22:05:08.974Z,4.15
2022-12-26T22:07:36.951Z,3.78
2022-12-26T22:10:05.926Z,3.75
2022-12-26T22:12:52.719Z,3.35
2022-12-26T22:15:38.240Z,3.90
2022-12-26T22:18:06.336Z,3.00
2022-12-26T22:20:35.545Z,2.72
2022-12-26T22:23:03.712Z,3.70
2022-12-26T22:25:32.002Z,3.30
2022-12-26T22:28:01.545Z,3.35
2022-12-26T22:30:29.495Z,2.30
2022-12-26T22:32:57.411Z,3.50
2022-12-26T22:35:25.391Z,2.30
2022-12-26T22:37:53.388Z,2.55
2022-12-26T22:40:21.380Z,2.97
2022-12-26T22:42:49.358Z,2.70
2022-12-26T22:45:18.763Z,2.78
2022-12-26T22:47:46.743Z,3.08
2022-12-26T22:50:16.307Z,3.47
2022-12-26T22:52:44.722Z,3.10
2022-12-26T22:55:13.263Z,2.60
2022-12-26T22:57:41.244Z,2.83
2022-12-26T23:00:13.773Z,3.20
2022-12-26T23:02:43.186Z,4.30
2022-12-26T23:05:12.801Z,3.30
2022-12-26T23:07:41.455Z,3.60
2022-12-26T23:10:14.193Z,2.95
2022-12-26T23:12:45.635Z,3.28
2022-12-26T23:15:15.969Z,3.58
2022-12-26T23:18:08.067Z,3.40
2022-12-26T23:20:56.558Z,3.70
2022-12-26T23:23:25.125Z,3.72
2022-12-26T23:25:53.110Z,4.70
2022-12-26T23:28:38.550Z,3.53
2022-12-26T23:31:06.635Z,2.85
2022-12-26T23:33:35.990Z,3.50
2022-12-26T23:36:04.148Z,3.50
2022-12-26T23:38:32.177Z,4.00
2022-12-26T23:41:00.100Z,3.75
2022-12-26T23:43:28.269Z,3.50
2022-12-26T23:45:56.281Z,2.90
2022-12-26T23:48:24.226Z,3.88
2022-12-26T23:51:02.674Z,3.97
2022-12-26T23:53:30.868Z,4.10
2022-12-26T23:55:59.122Z,3.30
2022-12-26T23:58:27.386Z,3.45
